Tuesday, July 28, 2015, 5:45 PM EDT
Back to Local

KMPO, Mt Pocono Pocono Mountains

Location: Pocono Summit, PA, United States Lat: 41.133
Local Time: 5:45 PM EDT (21:45 GMT) Lon: -75.383
Time Zone: US/Eastern Elev: 1915 ft

Show me the last for .
Show Decoded

2015-07-28 16:53 METAR KMPO 282053Z AUTO VRB05KT 10SM BKN060 OVC075 29/14 A3006 RMK AO2 SLP164
                 T02890144 57004 PWINO =
2015-07-28 15:53 METAR KMPO 281953Z AUTO 19003KT 10SM FEW065 28/14 A3007 RMK AO2 SLP167 T02780139
                 PWINO $ =
2015-07-28 14:53 METAR KMPO 281853Z AUTO 14004KT 10SM FEW070 27/14 A3006 RMK AO2 SLP165 T02720144
                 PWINO $ =
2015-07-28 13:53 METAR KMPO 281753Z AUTO 07004KT 10SM BKN055 28/14 A3007 RMK AO2 SLP169 T02780144
                 10289 20211 58006 PWINO $ =
2015-07-28 12:53 METAR KMPO 281653Z AUTO 10006KT 10SM FEW050 FEW075 28/15 A3008 RMK AO2 SLP173
                 T02780150 PWINO $ =
2015-07-28 11:53 METAR KMPO 281553Z AUTO 00000KT 10SM CLR 27/15 A3009 RMK AO2 SLP176 T02720150 =
2015-07-28 11:04 METAR KMPO 281504Z AUTO 06006KT 10SM FEW002 27/13 A3009 RMK AO2 T02720133 =
2015-07-28 10:53 METAR KMPO 281453Z AUTO 05005KT 10SM CLR 27/13 A3009 RMK AO2 SLP176 T02720133
                 58003 =
2015-07-28 09:53 METAR KMPO 281353Z AUTO 01006KT 10SM CLR 26/17 A3009 RMK AO2 SLP178 T02610172 =
2015-07-28 08:53 METAR KMPO 281253Z AUTO 31003KT 10SM CLR 23/19 A3010 RMK AO2 SLP180 T02330189 =
2015-07-28 07:53 METAR KMPO 281153Z AUTO 31004KT 6SM BR CLR 21/19 A3010 RMK AO2 SLP179 T02110189
                 10211 20161 51005 =
2015-07-28 07:03 METAR KMPO 281103Z AUTO 32004KT 3SM BR CLR 18/17 A3010 RMK AO2 T01780167 =
2015-07-28 06:53 METAR KMPO 281053Z AUTO 00000KT 1 3/4SM BR CLR 17/16 A3010 RMK AO2 SLP181
                 T01670161 =
2015-07-28 06:40 METAR KMPO 281040Z AUTO 33003KT 2SM BR FEW003 18/17 A3009 RMK AO2 T01780167 =
2015-07-28 06:35 METAR KMPO 281035Z AUTO 34003KT 1SM BR VV003 17/16 A3009 RMK AO2 T01670161 =
2015-07-28 06:12 METAR KMPO 281012Z AUTO 00000KT 1/4SM FG VV004 17/16 A3008 RMK AO2 T01670161 =
2015-07-28 05:52 METAR KMPO 280952Z AUTO 00000KT 1/4SM FG VV005 17/17 A3008 RMK AO2 SLP177
                 T01720167 =
2015-07-28 05:51 METAR KMPO 280951Z AUTO 00000KT 1/4SM FG VV005 17/17 A3008 RMK AO2 =
2015-07-28 05:30 METAR KMPO 280930Z AUTO 32003KT 1 1/2SM BR CLR 17/17 A3008 RMK AO2 T01720167 =
2015-07-28 05:15 METAR KMPO 280915Z AUTO 31003KT 2 1/2SM BR CLR 18/17 A3008 RMK AO2 T01830172 =
2015-07-28 05:08 METAR KMPO 280908Z AUTO 32004KT 3SM BR CLR 18/18 A3008 RMK AO2 T01830178 =
2015-07-28 04:37 METAR KMPO 280837Z AUTO 33003KT 1 1/4SM BR FEW007 18/17 A3008 RMK AO2 T01780167
                 =
2015-07-28 04:22 METAR KMPO 280822Z AUTO 00000KT 3/4SM BR VV007 18/17 A3008 RMK AO2 T01780172 =
2015-07-28 04:20 METAR KMPO 280820Z AUTO 00000KT 1 1/4SM BR FEW007 18/17 A3008 RMK AO2 T01780172
                 =
2015-07-28 03:53 METAR KMPO 280753Z AUTO 33003KT 3SM BR CLR 19/18 A3009 RMK AO2 SLP175 T01890178
                 =
2015-07-28 02:53 METAR KMPO 280653Z AUTO 31004KT 5SM BR CLR 20/18 A3009 RMK AO2 SLP177 T02000183
                 =
2015-07-28 01:37 METAR KMPO 280537Z AUTO 31003KT 4SM BR BKN019 BKN049 18/17 A3009 RMK AO2
                 T01830167 =
2015-07-28 00:53 METAR KMPO 280453Z AUTO 00000KT 5SM BR CLR 18/17 A3009 RMK AO2 SLP180 T01780167
                 402610178 =
2015-07-27 23:53 METAR KMPO 280353Z AUTO 30003KT 4SM BR CLR 18/17 A3009 RMK AO2 SLP179 T01830172
                 =
2015-07-27 22:53 METAR KMPO 280253Z AUTO 32003KT 4SM BR CLR 18/17 A3009 RMK AO2 SLP178 T01830167
                 51010 =
2015-07-27 21:53 METAR KMPO 280153Z AUTO 00000KT 4SM BR CLR 19/18 A3008 RMK AO2 SLP178 T01940183
                 =
2015-07-27 20:53 METAR KMPO 280053Z AUTO 00000KT 5SM BR CLR 21/20 A3007 RMK AO2 SLP172 T02060200
                 =
2015-07-27 19:53 METAR KMPO 272353Z AUTO 00000KT 9SM CLR 23/21 A3005 RMK AO2 SLP166 T02280206
                 10261 20228 53001 =
2015-07-27 18:53 METAR KMPO 272253Z AUTO 00000KT 9SM FEW032 24/20 A3005 RMK AO2 SLP165 T02390200
                 =
2015-07-27 18:08 METAR KMPO 272208Z AUTO 17005KT 10SM SCT027 25/19 A3005 RMK AO2 T02500189 =

Support USWX by starting your Amazon purchase here.